createdAt,value
2023-01-27T00:05:07.610Z,23.08
2023-01-27T00:15:29.791Z,28.73
2023-01-27T00:25:58.267Z,25.42
2023-01-27T00:36:19.854Z,19.88
2023-01-27T00:46:43.361Z,24.10
2023-01-27T00:57:05.269Z,19.70
2023-01-27T01:07:28.475Z,12.95
2023-01-27T01:17:50.363Z,33.47
2023-01-27T01:28:13.504Z,31.08
2023-01-27T01:38:34.998Z,28.58
2023-01-27T01:49:02.535Z,26.75
2023-01-27T01:59:28.118Z,37.92
2023-01-27T02:09:51.121Z,42.50
2023-01-27T02:20:21.013Z,25.40
2023-01-27T02:30:43.850Z,31.83
2023-01-27T02:41:10.688Z,31.25
2023-01-27T02:51:34.616Z,38.67
2023-01-27T03:01:56.866Z,44.10
2023-01-27T03:12:23.065Z,29.45
2023-01-27T03:22:46.089Z,39.90
2023-01-27T03:33:10.436Z,21.63
2023-01-27T03:44:04.597Z,23.15
2023-01-27T03:54:27.761Z,30.35
2023-01-27T04:05:06.428Z,30.10
2023-01-27T04:15:29.603Z,27.40
2023-01-27T04:25:54.293Z,22.70
2023-01-27T04:36:17.452Z,35.22
2023-01-27T04:46:39.934Z,26.27
2023-01-27T04:57:03.887Z,29.02
2023-01-27T05:07:26.105Z,40.63
2023-01-27T05:17:49.112Z,24.80
2023-01-27T05:28:10.956Z,29.63
2023-01-27T05:38:34.532Z,33.67
2023-01-27T05:48:58.293Z,27.15
2023-01-27T05:59:21.102Z,26.77
2023-01-27T06:09:43.069Z,31.08
2023-01-27T06:20:07.104Z,25.17
2023-01-27T06:30:28.889Z,16.70
2023-01-27T06:40:51.890Z,12.15
2023-01-27T06:51:13.341Z,19.58
2023-01-27T07:01:36.760Z,26.88
2023-01-27T07:11:58.663Z,20.90
2023-01-27T07:22:21.576Z,20.98
2023-01-27T07:32:43.030Z,9.95
2023-01-27T07:43:05.830Z,20.23
2023-01-27T07:53:29.182Z,17.48
2023-01-27T08:03:52.222Z,20.55
2023-01-27T08:14:13.951Z,21.35
2023-01-27T08:24:37.013Z,18.40
2023-01-27T08:34:58.636Z,24.27
2023-01-27T08:45:21.515Z,25.38
2023-01-27T08:55:43.494Z,16.95
2023-01-27T09:06:09.119Z,19.63
2023-01-27T09:16:30.730Z,23.20
2023-01-27T09:26:53.668Z,26.17
2023-01-27T09:37:15.463Z,22.15
2023-01-27T09:48:04.230Z,14.75
2023-01-27T09:58:38.737Z,13.95
2023-01-27T10:09:23.577Z,17.25
2023-01-27T10:19:59.672Z,16.60
2023-01-27T10:30:30.298Z,23.10
2023-01-27T10:41:00.840Z,21.70
2023-01-27T10:51:27.349Z,12.32
2023-01-27T11:01:54.259Z,13.13
2023-01-27T11:22:48.093Z,14.38
2023-01-27T11:33:20.080Z,7.35
2023-01-27T11:43:41.920Z,11.75
2023-01-27T11:54:11.202Z,9.75
2023-01-27T12:04:51.700Z,10.82
2023-01-27T12:15:18.403Z,7.22
2023-01-27T12:25:44.676Z,4.93
2023-01-27T12:36:15.006Z,9.60
2023-01-27T12:46:37.140Z,14.38
2023-01-27T12:57:03.996Z,12.95
2023-01-27T13:07:29.708Z,5.90
2023-01-27T13:17:53.664Z,3.70
2023-01-27T13:28:19.770Z,7.93
2023-01-27T13:38:51.029Z,11.63
2023-01-27T13:49:29.773Z,4.55
2023-01-27T14:00:08.236Z,15.43
2023-01-27T14:10:39.137Z,18.83
2023-01-27T14:21:27.925Z,9.77
2023-01-27T14:32:07.356Z,15.98
2023-01-27T14:42:38.280Z,11.43
2023-01-27T14:53:12.348Z,16.48
2023-01-27T15:04:02.043Z,14.82
2023-01-27T15:14:57.810Z,9.45
2023-01-27T15:25:30.971Z,10.10
2023-01-27T15:36:20.555Z,9.27
2023-01-27T15:46:46.824Z,9.30
2023-01-27T15:57:24.965Z,10.90
2023-01-27T16:07:53.420Z,10.32
2023-01-27T16:18:27.063Z,4.13
2023-01-27T16:28:54.153Z,10.80
2023-01-27T16:39:28.338Z,8.38
2023-01-27T16:49:53.639Z,6.38
2023-01-27T17:00:23.062Z,7.15
2023-01-27T17:10:50.787Z,9.15
2023-01-27T17:21:12.626Z,7.72
2023-01-27T17:31:39.086Z,18.08
2023-01-27T17:42:01.623Z,9.00
2023-01-27T17:52:27.547Z,7.65
2023-01-27T18:02:55.175Z,9.15
2023-01-27T18:13:37.771Z,1.23
2023-01-27T18:24:00.748Z,7.57
2023-01-27T18:34:27.767Z,10.57
2023-01-27T18:44:50.366Z,14.80
2023-01-27T18:55:17.307Z,9.55
2023-01-27T19:05:40.197Z,8.35
2023-01-27T19:16:03.266Z,8.23
2023-01-27T19:26:25.310Z,5.40
2023-01-27T19:36:48.415Z,9.95
2023-01-27T19:47:12.404Z,9.05
2023-01-27T19:57:35.673Z,6.15
2023-01-27T20:07:58.305Z,6.80
2023-01-27T20:18:23.613Z,12.98
2023-01-27T20:28:46.062Z,12.20
2023-01-27T20:39:09.035Z,4.30
2023-01-27T20:49:30.939Z,8.15
2023-01-27T20:59:54.244Z,9.60
2023-01-27T21:10:16.036Z,11.07
2023-01-27T21:20:38.761Z,7.63
2023-01-27T21:31:06.840Z,6.57
2023-01-27T21:41:52.660Z,5.50
2023-01-27T21:52:14.652Z,6.73
2023-01-27T22:02:37.781Z,5.80
2023-01-27T22:13:00.555Z,5.13
2023-01-27T22:23:24.724Z,7.97
2023-01-27T22:33:46.334Z,9.88
2023-01-27T22:44:09.315Z,4.47
2023-01-27T22:54:30.933Z,4.95
2023-01-27T23:04:54.113Z,5.82
2023-01-27T23:15:16.277Z,4.38
2023-01-27T23:25:44.439Z,13.05
2023-01-27T23:36:08.286Z,26.65
2023-01-27T23:46:31.853Z,8.70
2023-01-27T23:56:53.509Z,10.20
